sensor_id;sensor_type;location;lat;lon;timestamp;P1;durP1;ratioP1;P2;durP2;ratioP2
1414;SDS011;702;49.466;11.086;2022-10-14T00:01:13;19.13;;;15.00;;
1414;SDS011;702;49.466;11.086;2022-10-14T00:03:43;16.50;;;14.67;;
1414;SDS011;702;49.466;11.086;2022-10-14T00:06:11;22.60;;;16.53;;
1414;SDS011;702;49.466;11.086;2022-10-14T00:08:41;17.27;;;15.43;;
1414;SDS011;702;49.466;11.086;2022-10-14T00:11:12;20.50;;;16.40;;
1414;SDS011;702;49.466;11.086;2022-10-14T00:13:41;17.00;;;15.30;;
1414;SDS011;702;49.466;11.086;2022-10-14T00:16:14;18.10;;;15.93;;
1414;SDS011;702;49.466;11.086;2022-10-14T00:18:43;17.57;;;15.70;;
1414;SDS011;702;49.466;11.086;2022-10-14T00:21:10;21.13;;;16.33;;
1414;SDS011;702;49.466;11.086;2022-10-14T00:23:38;18.20;;;15.90;;
1414;SDS011;702;49.466;11.086;2022-10-14T00:26:05;20.80;;;16.83;;
1414;SDS011;702;49.466;11.086;2022-10-14T00:28:32;18.60;;;16.60;;
1414;SDS011;702;49.466;11.086;2022-10-14T00:31:01;18.30;;;16.37;;
1414;SDS011;702;49.466;11.086;2022-10-14T00:33:30;23.20;;;17.50;;
1414;SDS011;702;49.466;11.086;2022-10-14T00:35:58;18.00;;;15.53;;
1414;SDS011;702;49.466;11.086;2022-10-14T00:38:30;20.57;;;16.97;;
1414;SDS011;702;49.466;11.086;2022-10-14T00:40:57;19.43;;;16.33;;
1414;SDS011;702;49.466;11.086;2022-10-14T00:43:25;20.53;;;16.43;;
1414;SDS011;702;49.466;11.086;2022-10-14T00:45:53;20.73;;;17.37;;
1414;SDS011;702;49.466;11.086;2022-10-14T00:48:23;25.23;;;18.80;;
1414;SDS011;702;49.466;11.086;2022-10-14T00:50:52;20.37;;;17.37;;
1414;SDS011;702;49.466;11.086;2022-10-14T00:53:21;21.97;;;17.80;;
1414;SDS011;702;49.466;11.086;2022-10-14T00:55:49;27.20;;;18.63;;
1414;SDS011;702;49.466;11.086;2022-10-14T00:58:16;21.00;;;17.80;;
1414;SDS011;702;49.466;11.086;2022-10-14T01:00:44;23.17;;;18.33;;
1414;SDS011;702;49.466;11.086;2022-10-14T01:03:16;25.80;;;20.10;;
1414;SDS011;702;49.466;11.086;2022-10-14T01:05:49;29.17;;;19.60;;
1414;SDS011;702;49.466;11.086;2022-10-14T01:08:24;26.90;;;19.03;;
1414;SDS011;702;49.466;11.086;2022-10-14T01:10:56;21.87;;;18.60;;
1414;SDS011;702;49.466;11.086;2022-10-14T01:13:33;26.30;;;19.60;;
1414;SDS011;702;49.466;11.086;2022-10-14T01:16:05;25.60;;;19.97;;
1414;SDS011;702;49.466;11.086;2022-10-14T01:18:46;23.77;;;20.77;;
1414;SDS011;702;49.466;11.086;2022-10-14T01:21:29;30.13;;;20.43;;
1414;SDS011;702;49.466;11.086;2022-10-14T01:24:11;26.60;;;20.67;;
1414;SDS011;702;49.466;11.086;2022-10-14T01:27:12;28.77;;;20.37;;
1414;SDS011;702;49.466;11.086;2022-10-14T01:30:14;23.73;;;18.97;;
1414;SDS011;702;49.466;11.086;2022-10-14T01:32:45;28.57;;;20.27;;
1414;SDS011;702;49.466;11.086;2022-10-14T01:35:28;29.60;;;21.90;;
1414;SDS011;702;49.466;11.086;2022-10-14T01:38:18;22.93;;;19.87;;
1414;SDS011;702;49.466;11.086;2022-10-14T01:40:51;28.17;;;20.93;;
1414;SDS011;702;49.466;11.086;2022-10-14T01:43:25;31.17;;;23.20;;
1414;SDS011;702;49.466;11.086;2022-10-14T01:45:56;27.00;;;22.17;;
1414;SDS011;702;49.466;11.086;2022-10-14T01:48:26;29.30;;;22.10;;
1414;SDS011;702;49.466;11.086;2022-10-14T01:51:02;28.60;;;22.90;;
1414;SDS011;702;49.466;11.086;2022-10-14T01:53:37;28.57;;;22.77;;
1414;SDS011;702;49.466;11.086;2022-10-14T01:56:09;29.83;;;22.77;;
1414;SDS011;702;49.466;11.086;2022-10-14T01:58:39;27.40;;;21.87;;
1414;SDS011;702;49.466;11.086;2022-10-14T02:01:08;25.53;;;22.73;;
1414;SDS011;702;49.466;11.086;2022-10-14T02:03:40;32.13;;;23.73;;
1414;SDS011;702;49.466;11.086;2022-10-14T02:06:10;30.57;;;21.73;;
1414;SDS011;702;49.466;11.086;2022-10-14T02:08:50;29.30;;;22.40;;
1414;SDS011;702;49.466;11.086;2022-10-14T02:11:29;28.30;;;22.93;;
1414;SDS011;702;49.466;11.086;2022-10-14T02:14:07;33.00;;;24.57;;
1414;SDS011;702;49.466;11.086;2022-10-14T02:16:47;30.97;;;23.73;;
1414;SDS011;702;49.466;11.086;2022-10-14T02:19:23;36.40;;;25.53;;
1414;SDS011;702;49.466;11.086;2022-10-14T02:21:56;35.23;;;25.73;;
1414;SDS011;702;49.466;11.086;2022-10-14T02:24:29;29.40;;;24.47;;
1414;SDS011;702;49.466;11.086;2022-10-14T02:27:01;31.00;;;24.43;;
1414;SDS011;702;49.466;11.086;2022-10-14T02:29:33;29.80;;;23.27;;
1414;SDS011;702;49.466;11.086;2022-10-14T02:32:03;37.03;;;25.20;;
1414;SDS011;702;49.466;11.086;2022-10-14T02:34:34;26.40;;;22.13;;
1414;SDS011;702;49.466;11.086;2022-10-14T02:37:03;33.80;;;22.40;;
1414;SDS011;702;49.466;11.086;2022-10-14T02:39:32;31.23;;;24.00;;
1414;SDS011;702;49.466;11.086;2022-10-14T02:42:04;26.07;;;22.37;;
1414;SDS011;702;49.466;11.086;2022-10-14T02:44:32;25.60;;;22.80;;
1414;SDS011;702;49.466;11.086;2022-10-14T02:46:59;30.37;;;22.30;;
1414;SDS011;702;49.466;11.086;2022-10-14T02:49:28;25.13;;;21.73;;
1414;SDS011;702;49.466;11.086;2022-10-14T02:51:55;25.73;;;21.10;;
1414;SDS011;702;49.466;11.086;2022-10-14T02:54:22;30.33;;;22.77;;
1414;SDS011;702;49.466;11.086;2022-10-14T02:56:49;26.07;;;20.93;;
1414;SDS011;702;49.466;11.086;2022-10-14T02:59:17;30.23;;;22.43;;
1414;SDS011;702;49.466;11.086;2022-10-14T03:01:44;28.87;;;21.20;;
1414;SDS011;702;49.466;11.086;2022-10-14T03:04:11;27.63;;;22.57;;
1414;SDS011;702;49.466;11.086;2022-10-14T03:06:40;25.13;;;20.90;;
1414;SDS011;702;49.466;11.086;2022-10-14T03:09:07;24.73;;;21.10;;
1414;SDS011;702;49.466;11.086;2022-10-14T03:11:34;27.80;;;21.73;;
1414;SDS011;702;49.466;11.086;2022-10-14T03:14:01;27.40;;;22.70;;
1414;SDS011;702;49.466;11.086;2022-10-14T03:16:29;28.60;;;21.97;;
1414;SDS011;702;49.466;11.086;2022-10-14T03:18:56;30.90;;;20.73;;
1414;SDS011;702;49.466;11.086;2022-10-14T03:21:23;29.40;;;21.80;;
1414;SDS011;702;49.466;11.086;2022-10-14T03:23:52;26.30;;;22.03;;
1414;SDS011;702;49.466;11.086;2022-10-14T03:26:19;24.07;;;19.97;;
1414;SDS011;702;49.466;11.086;2022-10-14T03:28:48;24.67;;;20.70;;
1414;SDS011;702;49.466;11.086;2022-10-14T03:31:15;26.03;;;20.90;;
1414;SDS011;702;49.466;11.086;2022-10-14T03:33:42;28.17;;;22.03;;
1414;SDS011;702;49.466;11.086;2022-10-14T03:36:09;30.50;;;21.23;;
1414;SDS011;702;49.466;11.086;2022-10-14T03:38:37;26.10;;;21.50;;
1414;SDS011;702;49.466;11.086;2022-10-14T03:41:06;30.13;;;23.63;;
1414;SDS011;702;49.466;11.086;2022-10-14T03:43:33;32.17;;;21.47;;
1414;SDS011;702;49.466;11.086;2022-10-14T03:46:00;25.03;;;20.63;;
1414;SDS011;702;49.466;11.086;2022-10-14T03:48:27;26.50;;;23.00;;
1414;SDS011;702;49.466;11.086;2022-10-14T03:50:54;24.07;;;21.47;;
1414;SDS011;702;49.466;11.086;2022-10-14T03:53:21;29.90;;;21.17;;
1414;SDS011;702;49.466;11.086;2022-10-14T03:55:49;27.40;;;21.97;;
1414;SDS011;702;49.466;11.086;2022-10-14T03:58:17;28.93;;;20.90;;
1414;SDS011;702;49.466;11.086;2022-10-14T04:00:45;23.93;;;21.17;;
1414;SDS011;702;49.466;11.086;2022-10-14T04:03:12;28.67;;;21.77;;
1414;SDS011;702;49.466;11.086;2022-10-14T04:05:40;27.77;;;21.90;;
1414;SDS011;702;49.466;11.086;2022-10-14T04:08:07;26.03;;;21.90;;
1414;SDS011;702;49.466;11.086;2022-10-14T04:10:34;29.00;;;21.17;;
1414;SDS011;702;49.466;11.086;2022-10-14T04:13:02;29.33;;;22.60;;
1414;SDS011;702;49.466;11.086;2022-10-14T04:15:30;26.83;;;21.80;;
1414;SDS011;702;49.466;11.086;2022-10-14T04:17:58;23.03;;;20.53;;
1414;SDS011;702;49.466;11.086;2022-10-14T04:20:25;25.50;;;21.70;;
1414;SDS011;702;49.466;11.086;2022-10-14T04:22:52;26.00;;;22.67;;
1414;SDS011;702;49.466;11.086;2022-10-14T04:25:20;26.60;;;22.97;;
1414;SDS011;702;49.466;11.086;2022-10-14T04:27:47;26.40;;;23.60;;
1414;SDS011;702;49.466;11.086;2022-10-14T04:30:15;27.80;;;24.63;;
1414;SDS011;702;49.466;11.086;2022-10-14T04:32:44;29.90;;;25.50;;
1414;SDS011;702;49.466;11.086;2022-10-14T04:35:11;30.03;;;26.83;;
1414;SDS011;702;49.466;11.086;2022-10-14T04:37:38;31.13;;;26.40;;
1414;SDS011;702;49.466;11.086;2022-10-14T04:40:06;35.80;;;26.90;;
1414;SDS011;702;49.466;11.086;2022-10-14T04:42:34;31.57;;;28.30;;
1414;SDS011;702;49.466;11.086;2022-10-14T04:45:01;31.77;;;26.40;;
1414;SDS011;702;49.466;11.086;2022-10-14T04:47:29;36.60;;;27.10;;
1414;SDS011;702;49.466;11.086;2022-10-14T04:49:58;34.80;;;28.90;;
1414;SDS011;702;49.466;11.086;2022-10-14T04:52:25;31.93;;;28.70;;
1414;SDS011;702;49.466;11.086;2022-10-14T04:54:52;32.57;;;29.17;;
1414;SDS011;702;49.466;11.086;2022-10-14T04:57:19;33.03;;;29.03;;
1414;SDS011;702;49.466;11.086;2022-10-14T04:59:46;33.53;;;30.03;;
1414;SDS011;702;49.466;11.086;2022-10-14T05:02:13;33.63;;;29.20;;
1414;SDS011;702;49.466;11.086;2022-10-14T05:04:41;31.27;;;28.00;;
1414;SDS011;702;49.466;11.086;2022-10-14T05:07:09;30.47;;;27.40;;
1414;SDS011;702;49.466;11.086;2022-10-14T05:09:38;34.37;;;27.40;;
1414;SDS011;702;49.466;11.086;2022-10-14T05:12:05;28.80;;;25.60;;
1414;SDS011;702;49.466;11.086;2022-10-14T05:14:34;27.20;;;24.37;;
1414;SDS011;702;49.466;11.086;2022-10-14T05:17:02;27.53;;;23.63;;
1414;SDS011;702;49.466;11.086;2022-10-14T05:19:29;30.63;;;23.83;;
1414;SDS011;702;49.466;11.086;2022-10-14T05:21:56;26.43;;;23.63;;
1414;SDS011;702;49.466;11.086;2022-10-14T05:24:25;28.80;;;23.63;;
1414;SDS011;702;49.466;11.086;2022-10-14T05:26:53;28.60;;;23.70;;
1414;SDS011;702;49.466;11.086;2022-10-14T05:29:20;31.03;;;24.10;;
1414;SDS011;702;49.466;11.086;2022-10-14T05:31:47;29.80;;;23.53;;
1414;SDS011;702;49.466;11.086;2022-10-14T05:34:15;29.87;;;23.73;;
1414;SDS011;702;49.466;11.086;2022-10-14T05:36:42;28.30;;;23.70;;
1414;SDS011;702;49.466;11.086;2022-10-14T05:39:09;29.40;;;22.67;;
1414;SDS011;702;49.466;11.086;2022-10-14T05:41:38;30.53;;;24.30;;
1414;SDS011;702;49.466;11.086;2022-10-14T05:44:05;29.60;;;22.00;;
1414;SDS011;702;49.466;11.086;2022-10-14T05:46:37;44.23;;;24.93;;
1414;SDS011;702;49.466;11.086;2022-10-14T05:49:05;27.60;;;22.53;;
1414;SDS011;702;49.466;11.086;2022-10-14T05:51:32;23.13;;;20.67;;
1414;SDS011;702;49.466;11.086;2022-10-14T05:54:00;31.63;;;22.47;;
1414;SDS011;702;49.466;11.086;2022-10-14T05:56:27;27.63;;;22.40;;
1414;SDS011;702;49.466;11.086;2022-10-14T05:58:56;25.87;;;20.23;;
1414;SDS011;702;49.466;11.086;2022-10-14T06:01:23;27.17;;;22.60;;
1414;SDS011;702;49.466;11.086;2022-10-14T06:03:51;31.00;;;21.37;;
1414;SDS011;702;49.466;11.086;2022-10-14T06:06:18;22.30;;;20.00;;
1414;SDS011;702;49.466;11.086;2022-10-14T06:08:45;24.63;;;21.37;;
1414;SDS011;702;49.466;11.086;2022-10-14T06:11:13;24.63;;;20.57;;
1414;SDS011;702;49.466;11.086;2022-10-14T06:13:42;28.53;;;22.03;;
1414;SDS011;702;49.466;11.086;2022-10-14T06:16:11;33.60;;;23.10;;
1414;SDS011;702;49.466;11.086;2022-10-14T06:18:38;26.33;;;21.63;;
1414;SDS011;702;49.466;11.086;2022-10-14T06:21:05;23.57;;;21.10;;
1414;SDS011;702;49.466;11.086;2022-10-14T06:23:38;25.90;;;21.30;;
1414;SDS011;702;49.466;11.086;2022-10-14T06:26:05;26.70;;;20.73;;
1414;SDS011;702;49.466;11.086;2022-10-14T06:28:34;23.63;;;19.93;;
1414;SDS011;702;49.466;11.086;2022-10-14T06:31:02;27.17;;;21.90;;
1414;SDS011;702;49.466;11.086;2022-10-14T06:33:31;24.00;;;21.40;;
1414;SDS011;702;49.466;11.086;2022-10-14T06:36:00;22.90;;;20.00;;
1414;SDS011;702;49.466;11.086;2022-10-14T06:38:28;30.50;;;21.10;;
1414;SDS011;702;49.466;11.086;2022-10-14T06:40:55;24.40;;;20.90;;
1414;SDS011;702;49.466;11.086;2022-10-14T06:43:23;23.60;;;20.67;;
1414;SDS011;702;49.466;11.086;2022-10-14T06:45:50;24.50;;;19.97;;
1414;SDS011;702;49.466;11.086;2022-10-14T06:48:19;25.90;;;21.17;;
1414;SDS011;702;49.466;11.086;2022-10-14T06:50:47;29.70;;;21.53;;
1414;SDS011;702;49.466;11.086;2022-10-14T06:53:14;27.13;;;21.27;;
1414;SDS011;702;49.466;11.086;2022-10-14T06:55:42;23.10;;;20.20;;
1414;SDS011;702;49.466;11.086;2022-10-14T06:58:10;25.90;;;20.63;;
1414;SDS011;702;49.466;11.086;2022-10-14T07:00:38;24.90;;;21.63;;
1414;SDS011;702;49.466;11.086;2022-10-14T07:03:05;24.97;;;20.60;;
1414;SDS011;702;49.466;11.086;2022-10-14T07:05:32;29.43;;;22.10;;
1414;SDS011;702;49.466;11.086;2022-10-14T07:08:02;22.60;;;19.77;;
1414;SDS011;702;49.466;11.086;2022-10-14T07:10:29;26.43;;;21.37;;
1414;SDS011;702;49.466;11.086;2022-10-14T07:12:57;22.63;;;19.60;;
1414;SDS011;702;49.466;11.086;2022-10-14T07:15:24;23.13;;;20.00;;
1414;SDS011;702;49.466;11.086;2022-10-14T07:17:51;22.97;;;19.90;;
1414;SDS011;702;49.466;11.086;2022-10-14T07:20:18;23.57;;;19.67;;
1414;SDS011;702;49.466;11.086;2022-10-14T07:22:47;23.07;;;19.63;;
1414;SDS011;702;49.466;11.086;2022-10-14T07:25:16;27.40;;;19.50;;
1414;SDS011;702;49.466;11.086;2022-10-14T07:27:43;25.10;;;20.20;;
1414;SDS011;702;49.466;11.086;2022-10-14T07:30:10;22.53;;;19.37;;
1414;SDS011;702;49.466;11.086;2022-10-14T07:32:38;24.90;;;20.60;;
1414;SDS011;702;49.466;11.086;2022-10-14T07:35:06;23.10;;;19.47;;
1414;SDS011;702;49.466;11.086;2022-10-14T07:37:34;22.10;;;19.20;;
1414;SDS011;702;49.466;11.086;2022-10-14T07:40:01;23.83;;;19.20;;
1414;SDS011;702;49.466;11.086;2022-10-14T07:42:31;22.33;;;19.50;;
1414;SDS011;702;49.466;11.086;2022-10-14T07:44:58;22.50;;;18.90;;
1414;SDS011;702;49.466;11.086;2022-10-14T07:47:25;20.83;;;18.63;;
1414;SDS011;702;49.466;11.086;2022-10-14T07:49:52;22.97;;;18.50;;
1414;SDS011;702;49.466;11.086;2022-10-14T07:52:20;22.50;;;19.37;;
1414;SDS011;702;49.466;11.086;2022-10-14T07:54:47;21.47;;;18.90;;
1414;SDS011;702;49.466;11.086;2022-10-14T07:57:14;22.37;;;18.47;;
1414;SDS011;702;49.466;11.086;2022-10-14T07:59:43;26.90;;;20.20;;
1414;SDS011;702;49.466;11.086;2022-10-14T08:02:11;26.07;;;18.90;;
1414;SDS011;702;49.466;11.086;2022-10-14T08:04:38;23.77;;;20.30;;
1414;SDS011;702;49.466;11.086;2022-10-14T08:07:05;21.80;;;18.90;;
1414;SDS011;702;49.466;11.086;2022-10-14T08:09:33;22.27;;;19.90;;
1414;SDS011;702;49.466;11.086;2022-10-14T08:12:01;24.13;;;20.23;;
1414;SDS011;702;49.466;11.086;2022-10-14T08:14:28;29.00;;;18.93;;
1414;SDS011;702;49.466;11.086;2022-10-14T08:16:57;24.97;;;19.30;;
1414;SDS011;702;49.466;11.086;2022-10-14T08:19:24;23.73;;;19.67;;
1414;SDS011;702;49.466;11.086;2022-10-14T08:21:52;28.83;;;20.13;;
1414;SDS011;702;49.466;11.086;2022-10-14T08:24:19;24.73;;;19.93;;
1414;SDS011;702;49.466;11.086;2022-10-14T08:26:48;24.43;;;17.67;;
1414;SDS011;702;49.466;11.086;2022-10-14T08:29:17;21.20;;;18.90;;
1414;SDS011;702;49.466;11.086;2022-10-14T08:31:46;21.23;;;17.57;;
1414;SDS011;702;49.466;11.086;2022-10-14T08:34:15;26.20;;;19.10;;
1414;SDS011;702;49.466;11.086;2022-10-14T08:36:45;21.40;;;16.80;;
1414;SDS011;702;49.466;11.086;2022-10-14T08:39:13;20.43;;;18.17;;
1414;SDS011;702;49.466;11.086;2022-10-14T08:41:45;22.10;;;17.80;;
1414;SDS011;702;49.466;11.086;2022-10-14T08:44:39;20.00;;;17.17;;
1414;SDS011;702;49.466;11.086;2022-10-14T08:47:11;24.67;;;18.30;;
1414;SDS011;702;49.466;11.086;2022-10-14T08:49:46;24.93;;;17.00;;
1414;SDS011;702;49.466;11.086;2022-10-14T08:52:21;31.17;;;17.60;;
1414;SDS011;702;49.466;11.086;2022-10-14T08:54:53;19.40;;;16.70;;
1414;SDS011;702;49.466;11.086;2022-10-14T08:57:25;20.60;;;17.77;;
1414;SDS011;702;49.466;11.086;2022-10-14T08:59:59;19.20;;;17.10;;
1414;SDS011;702;49.466;11.086;2022-10-14T09:02:33;22.53;;;17.23;;
1414;SDS011;702;49.466;11.086;2022-10-14T09:05:09;32.50;;;17.77;;
1414;SDS011;702;49.466;11.086;2022-10-14T09:07:39;18.97;;;16.90;;
1414;SDS011;702;49.466;11.086;2022-10-14T09:10:10;21.23;;;15.70;;
1414;SDS011;702;49.466;11.086;2022-10-14T09:12:41;17.70;;;14.73;;
1414;SDS011;702;49.466;11.086;2022-10-14T09:15:11;17.77;;;16.00;;
1414;SDS011;702;49.466;11.086;2022-10-14T09:17:45;25.93;;;15.10;;
1414;SDS011;702;49.466;11.086;2022-10-14T09:20:20;16.77;;;15.00;;
1414;SDS011;702;49.466;11.086;2022-10-14T09:22:54;18.17;;;15.37;;
1414;SDS011;702;49.466;11.086;2022-10-14T09:25:32;16.70;;;15.00;;
1414;SDS011;702;49.466;11.086;2022-10-14T09:28:01;19.70;;;16.00;;
1414;SDS011;702;49.466;11.086;2022-10-14T09:30:28;17.83;;;14.90;;
1414;SDS011;702;49.466;11.086;2022-10-14T09:33:02;15.63;;;13.93;;
1414;SDS011;702;49.466;11.086;2022-10-14T09:35:32;16.27;;;13.83;;
1414;SDS011;702;49.466;11.086;2022-10-14T09:38:03;15.30;;;12.57;;
1414;SDS011;702;49.466;11.086;2022-10-14T09:40:32;14.33;;;12.93;;
1414;SDS011;702;49.466;11.086;2022-10-14T09:43:04;13.33;;;11.47;;
1414;SDS011;702;49.466;11.086;2022-10-14T09:45:46;13.67;;;12.30;;
1414;SDS011;702;49.466;11.086;2022-10-14T09:48:18;16.43;;;12.70;;
1414;SDS011;702;49.466;11.086;2022-10-14T09:50:59;16.40;;;11.10;;
1414;SDS011;702;49.466;11.086;2022-10-14T09:53:29;12.83;;;11.30;;
1414;SDS011;702;49.466;11.086;2022-10-14T09:56:00;13.03;;;11.10;;
1414;SDS011;702;49.466;11.086;2022-10-14T09:58:30;10.63;;;9.53;;
1414;SDS011;702;49.466;11.086;2022-10-14T10:01:02;13.10;;;10.50;;
1414;SDS011;702;49.466;11.086;2022-10-14T10:03:30;11.33;;;9.73;;
1414;SDS011;702;49.466;11.086;2022-10-14T10:06:03;11.43;;;9.17;;
1414;SDS011;702;49.466;11.086;2022-10-14T10:08:33;10.63;;;8.73;;
1414;SDS011;702;49.466;11.086;2022-10-14T10:11:02;11.77;;;9.83;;
1414;SDS011;702;49.466;11.086;2022-10-14T10:13:34;10.50;;;9.30;;
1414;SDS011;702;49.466;11.086;2022-10-14T10:16:19;11.63;;;8.70;;
1414;SDS011;702;49.466;11.086;2022-10-14T10:18:49;10.17;;;8.77;;
1414;SDS011;702;49.466;11.086;2022-10-14T10:21:23;13.37;;;8.90;;
1414;SDS011;702;49.466;11.086;2022-10-14T10:23:54;9.27;;;8.37;;
1414;SDS011;702;49.466;11.086;2022-10-14T10:26:24;11.60;;;8.30;;
1414;SDS011;702;49.466;11.086;2022-10-14T10:28:54;9.83;;;8.83;;
1414;SDS011;702;49.466;11.086;2022-10-14T10:31:29;8.97;;;8.07;;
1414;SDS011;702;49.466;11.086;2022-10-14T10:34:25;11.20;;;9.37;;
1414;SDS011;702;49.466;11.086;2022-10-14T10:40:11;9.33;;;8.43;;
1414;SDS011;702;49.466;11.086;2022-10-14T10:46:24;10.07;;;8.30;;
1414;SDS011;702;49.466;11.086;2022-10-14T10:49:12;10.47;;;9.27;;
1414;SDS011;702;49.466;11.086;2022-10-14T10:51:50;11.73;;;8.80;;
1414;SDS011;702;49.466;11.086;2022-10-14T10:54:25;9.00;;;7.70;;
1414;SDS011;702;49.466;11.086;2022-10-14T10:57:05;10.40;;;9.40;;
1414;SDS011;702;49.466;11.086;2022-10-14T10:59:51;9.70;;;8.80;;
1414;SDS011;702;49.466;11.086;2022-10-14T11:02:33;11.10;;;9.90;;
1414;SDS011;702;49.466;11.086;2022-10-14T11:05:20;10.10;;;9.10;;
1414;SDS011;702;49.466;11.086;2022-10-14T11:08:19;10.03;;;9.10;;
1414;SDS011;702;49.466;11.086;2022-10-14T11:11:24;9.80;;;8.80;;
1414;SDS011;702;49.466;11.086;2022-10-14T11:14:14;11.20;;;9.10;;
1414;SDS011;702;49.466;11.086;2022-10-14T11:17:01;10.50;;;9.50;;
1414;SDS011;702;49.466;11.086;2022-10-14T11:19:33;10.00;;;8.70;;
1414;SDS011;702;49.466;11.086;2022-10-14T11:22:07;9.87;;;8.97;;
1414;SDS011;702;49.466;11.086;2022-10-14T11:24:47;9.03;;;7.93;;
1414;SDS011;702;49.466;11.086;2022-10-14T11:27:28;9.27;;;8.27;;
1414;SDS011;702;49.466;11.086;2022-10-14T11:30:08;9.13;;;8.30;;
1414;SDS011;702;49.466;11.086;2022-10-14T11:32:47;8.80;;;7.90;;
1414;SDS011;702;49.466;11.086;2022-10-14T11:35:36;8.73;;;7.83;;
1414;SDS011;702;49.466;11.086;2022-10-14T11:38:29;8.50;;;7.70;;
1414;SDS011;702;49.466;11.086;2022-10-14T11:41:16;9.77;;;8.60;;
1414;SDS011;702;49.466;11.086;2022-10-14T11:43:55;8.73;;;7.83;;
1414;SDS011;702;49.466;11.086;2022-10-14T11:46:30;8.80;;;7.60;;
1414;SDS011;702;49.466;11.086;2022-10-14T11:49:03;10.07;;;7.70;;
1414;SDS011;702;49.466;11.086;2022-10-14T11:51:39;8.20;;;7.50;;
1414;SDS011;702;49.466;11.086;2022-10-14T11:54:13;8.80;;;7.90;;
1414;SDS011;702;49.466;11.086;2022-10-14T11:56:45;11.97;;;8.00;;
1414;SDS011;702;49.466;11.086;2022-10-14T11:59:28;12.13;;;7.57;;
1414;SDS011;702;49.466;11.086;2022-10-14T12:02:13;9.87;;;7.37;;
1414;SDS011;702;49.466;11.086;2022-10-14T12:04:51;8.50;;;7.80;;
1414;SDS011;702;49.466;11.086;2022-10-14T12:07:26;7.67;;;6.97;;
1414;SDS011;702;49.466;11.086;2022-10-14T12:10:01;7.60;;;6.80;;
1414;SDS011;702;49.466;11.086;2022-10-14T12:12:38;8.80;;;7.47;;
1414;SDS011;702;49.466;11.086;2022-10-14T12:15:14;9.67;;;7.40;;
1414;SDS011;702;49.466;11.086;2022-10-14T12:17:47;7.80;;;7.00;;
1414;SDS011;702;49.466;11.086;2022-10-14T12:20:26;8.53;;;7.40;;
1414;SDS011;702;49.466;11.086;2022-10-14T12:23:00;10.23;;;7.30;;
1414;SDS011;702;49.466;11.086;2022-10-14T12:25:32;9.63;;;7.50;;
1414;SDS011;702;49.466;11.086;2022-10-14T12:28:05;7.37;;;6.67;;
1414;SDS011;702;49.466;11.086;2022-10-14T12:30:37;9.37;;;7.10;;
1414;SDS011;702;49.466;11.086;2022-10-14T12:33:07;7.67;;;6.73;;
1414;SDS011;702;49.466;11.086;2022-10-14T12:38:28;7.47;;;6.77;;
1414;SDS011;702;49.466;11.086;2022-10-14T12:44:04;8.00;;;7.00;;
1414;SDS011;702;49.466;11.086;2022-10-14T12:46:42;7.83;;;7.00;;
1414;SDS011;702;49.466;11.086;2022-10-14T12:49:15;8.40;;;7.57;;
1414;SDS011;702;49.466;11.086;2022-10-14T12:51:52;12.70;;;6.90;;
1414;SDS011;702;49.466;11.086;2022-10-14T12:54:22;8.60;;;7.90;;
1414;SDS011;702;49.466;11.086;2022-10-14T12:56:55;8.83;;;7.43;;
1414;SDS011;702;49.466;11.086;2022-10-14T12:59:26;9.00;;;6.93;;
1414;SDS011;702;49.466;11.086;2022-10-14T13:01:58;7.20;;;6.23;;
1414;SDS011;702;49.466;11.086;2022-10-14T13:04:29;8.33;;;6.70;;
1414;SDS011;702;49.466;11.086;2022-10-14T13:10:03;6.37;;;5.60;;
1414;SDS011;702;49.466;11.086;2022-10-14T13:25:10;4.97;;;4.53;;
1414;SDS011;702;49.466;11.086;2022-10-14T13:27:53;6.20;;;5.00;;
1414;SDS011;702;49.466;11.086;2022-10-14T13:30:44;5.30;;;4.60;;
1414;SDS011;702;49.466;11.086;2022-10-14T13:33:23;20.87;;;4.57;;
1414;SDS011;702;49.466;11.086;2022-10-14T13:35:59;9.40;;;5.53;;
1414;SDS011;702;49.466;11.086;2022-10-14T13:38:39;9.83;;;5.27;;
1414;SDS011;702;49.466;11.086;2022-10-14T13:41:13;5.70;;;5.10;;
1414;SDS011;702;49.466;11.086;2022-10-14T13:43:49;7.90;;;5.60;;
1414;SDS011;702;49.466;11.086;2022-10-14T13:46:20;10.20;;;5.67;;
1414;SDS011;702;49.466;11.086;2022-10-14T13:48:55;5.90;;;4.80;;
1414;SDS011;702;49.466;11.086;2022-10-14T13:51:26;5.10;;;4.63;;
1414;SDS011;702;49.466;11.086;2022-10-14T13:54:12;8.40;;;5.40;;
1414;SDS011;702;49.466;11.086;2022-10-14T13:56:43;10.77;;;5.43;;
1414;SDS011;702;49.466;11.086;2022-10-14T13:59:22;9.03;;;4.47;;
1414;SDS011;702;49.466;11.086;2022-10-14T14:01:50;5.93;;;4.93;;
1414;SDS011;702;49.466;11.086;2022-10-14T14:04:22;8.40;;;5.20;;
1414;SDS011;702;49.466;11.086;2022-10-14T14:06:51;6.70;;;5.17;;
1414;SDS011;702;49.466;11.086;2022-10-14T14:09:20;6.73;;;5.63;;
1414;SDS011;702;49.466;11.086;2022-10-14T14:11:51;5.43;;;4.70;;
1414;SDS011;702;49.466;11.086;2022-10-14T14:14:20;5.90;;;4.63;;
1414;SDS011;702;49.466;11.086;2022-10-14T14:16:52;5.43;;;4.90;;
1414;SDS011;702;49.466;11.086;2022-10-14T14:19:23;9.53;;;4.83;;
1414;SDS011;702;49.466;11.086;2022-10-14T14:22:03;7.50;;;4.50;;
1414;SDS011;702;49.466;11.086;2022-10-14T14:24:32;6.77;;;4.50;;
1414;SDS011;702;49.466;11.086;2022-10-14T14:27:00;5.17;;;4.67;;
1414;SDS011;702;49.466;11.086;2022-10-14T14:29:28;8.33;;;4.60;;
1414;SDS011;702;49.466;11.086;2022-10-14T14:31:58;4.80;;;3.80;;
1414;SDS011;702;49.466;11.086;2022-10-14T14:34:28;6.17;;;4.03;;
1414;SDS011;702;49.466;11.086;2022-10-14T14:36:55;10.03;;;5.13;;
1414;SDS011;702;49.466;11.086;2022-10-14T14:39:25;5.27;;;4.23;;
1414;SDS011;702;49.466;11.086;2022-10-14T14:41:54;6.07;;;4.30;;
1414;SDS011;702;49.466;11.086;2022-10-14T14:44:25;5.60;;;4.37;;
1414;SDS011;702;49.466;11.086;2022-10-14T14:46:56;5.03;;;4.07;;
1414;SDS011;702;49.466;11.086;2022-10-14T14:49:28;5.00;;;4.50;;
1414;SDS011;702;49.466;11.086;2022-10-14T14:51:58;6.83;;;4.70;;
1414;SDS011;702;49.466;11.086;2022-10-14T14:54:26;4.63;;;3.90;;
1414;SDS011;702;49.466;11.086;2022-10-14T14:56:54;5.60;;;4.27;;
1414;SDS011;702;49.466;11.086;2022-10-14T14:59:29;5.67;;;4.50;;
1414;SDS011;702;49.466;11.086;2022-10-14T15:02:00;4.90;;;4.30;;
1414;SDS011;702;49.466;11.086;2022-10-14T15:04:37;5.87;;;4.33;;
1414;SDS011;702;49.466;11.086;2022-10-14T15:07:05;4.83;;;4.30;;
1414;SDS011;702;49.466;11.086;2022-10-14T15:09:40;4.73;;;4.13;;
1414;SDS011;702;49.466;11.086;2022-10-14T15:12:12;11.30;;;4.60;;
1414;SDS011;702;49.466;11.086;2022-10-14T15:14:44;6.97;;;5.00;;
1414;SDS011;702;49.466;11.086;2022-10-14T15:17:22;6.27;;;4.80;;
1414;SDS011;702;49.466;11.086;2022-10-14T15:19:54;5.00;;;4.23;;
1414;SDS011;702;49.466;11.086;2022-10-14T15:22:30;7.77;;;4.37;;
1414;SDS011;702;49.466;11.086;2022-10-14T15:25:01;4.63;;;4.23;;
1414;SDS011;702;49.466;11.086;2022-10-14T15:27:41;5.00;;;4.43;;
1414;SDS011;702;49.466;11.086;2022-10-14T15:30:22;6.20;;;4.60;;
1414;SDS011;702;49.466;11.086;2022-10-14T15:33:00;5.57;;;4.80;;
1414;SDS011;702;49.466;11.086;2022-10-14T15:35:39;7.73;;;4.73;;
1414;SDS011;702;49.466;11.086;2022-10-14T15:38:10;5.13;;;4.63;;
1414;SDS011;702;49.466;11.086;2022-10-14T15:40:39;7.47;;;4.67;;
1414;SDS011;702;49.466;11.086;2022-10-14T15:43:11;6.07;;;4.73;;
1414;SDS011;702;49.466;11.086;2022-10-14T15:45:41;7.00;;;5.77;;
1414;SDS011;702;49.466;11.086;2022-10-14T15:48:14;8.60;;;5.13;;
1414;SDS011;702;49.466;11.086;2022-10-14T15:50:45;6.13;;;4.97;;